Time;durP1;ratioP1;P1;durP2;ratioP2;P2;SDS_P1;SDS_P2;PMS_P1;PMS_P2;Temp;Humidity;BMP_temperature;BMP_pressure;BME280_temperature;BME280_humidity;BME280_pressure;Samples;Min_cycle;Max_cycle;Signal;HPM_P1;HPM_P2
2023/08/03 00:02:14;;;;;;;5.72;1.67;;;;;;;;;;4953709;29;19923;-79
2023/08/03 00:04:40;;;;;;;12.15;1.70;;;;;;;;;;4955223;29;20069;-79
2023/08/03 00:07:06;;;;;;;;;;;;;;;;;;4957268;29;20736;-79
2023/08/03 00:09:32;;;;;;;7.03;1.70;;;;;;;;;;4957125;29;19926;-84
2023/08/03 00:11:58;;;;;;;3.63;1.90;;;;;;;;;;4956926;29;20110;-79
2023/08/03 00:14:24;;;;;;;;;;;;;;;;;;4956895;29;20087;-79
2023/08/03 00:16:50;;;;;;;5.40;1.40;;;;;;;;;;4988631;28;19993;-79
2023/08/03 00:19:16;;;;;;;;;;;;;;;;;;4925792;29;20069;-79
2023/08/03 00:21:42;;;;;;;8.25;1.65;;;;;;;;;;4989265;28;20414;-79
2023/08/03 00:24:08;;;;;;;;;;;;;;;;;;4940446;29;20555;-80
2023/08/03 00:26:34;;;;;;;9.70;1.83;;;;;;;;;;4957124;29;19922;-80
2023/08/03 00:29:01;;;;;;;5.40;2.10;;;;;;;;;;4988727;28;20047;-79
2023/08/03 00:31:26;;;;;;;;;;;;;;;;;;4988989;28;20118;-80
2023/08/03 00:33:52;;;;;;;5.32;2.30;;;;;;;;;;4969350;28;19982;-79
2023/08/03 00:36:18;;;;;;;;;;;;;;;;;;4937889;29;20089;-80
2023/08/03 00:38:44;;;;;;;14.80;2.92;;;;;;;;;;4969235;28;19966;-79
2023/08/03 00:41:10;;;;;;;;;;;;;;;;;;4937120;29;20047;-77
2023/08/03 00:43:36;;;;;;;8.65;2.50;;;;;;;;;;4935789;29;20036;-78
2023/08/03 00:46:02;;;;;;;;;;;;;;;;;;4920861;29;20052;-77
2023/08/03 00:48:28;;;;;;;5.65;2.28;;;;;;;;;;4983370;28;20447;-77
2023/08/03 00:50:54;;;;;;;;;;;;;;;;;;4936308;29;20058;-77
2023/08/03 00:53:21;;;;;;;9.02;2.67;;;;;;;;;;4986250;28;20013;-76
2023/08/03 00:55:47;;;;;;;6.03;2.25;;;;;;;;;;4948813;29;20052;-77
2023/08/03 00:58:12;;;;;;;;;;;;;;;;;;4919989;29;20043;-77
2023/08/03 01:00:39;;;;;;;10.70;2.58;;;;;;;;;;4967751;28;20364;-80
2023/08/03 01:03:05;;;;;;;;;;;;;;;;;;4935699;29;20058;-77
2023/08/03 01:05:32;;;;;;;7.78;2.50;;;;;;;;;;4954062;28;19922;-79
2023/08/03 01:07:58;;;;;;;8.07;2.60;;;;;;;;;;4980832;28;20119;-76
2023/08/03 01:10:25;;;;;;;;;;;;;;;;;;4967216;28;20039;-76
2023/08/03 01:12:51;;;;;;;6.45;2.40;;;;;;;;;;4965835;28;19977;-76
2023/08/03 01:15:17;;;;;;;6.97;2.40;;;;;;;;;;4951496;29;20051;-78
2023/08/03 01:17:43;;;;;;;7.72;2.30;;;;;;;;;;4965475;28;20047;-76
2023/08/03 01:20:10;;;;;;;8.85;2.70;;;;;;;;;;4938557;29;20051;-77
2023/08/03 01:22:39;;;;;;;6.97;2.35;;;;;;;;;;4938482;29;20047;-78
2023/08/03 01:25:06;;;;;;;6.38;2.40;;;;;;;;;;4941673;29;20130;-77
2023/08/03 01:27:32;;;;;;;9.93;2.33;;;;;;;;;;4924609;29;20047;-76
2023/08/03 01:29:58;;;;;;;;;;;;;;;;;;4970523;28;20047;-76
2023/08/03 01:32:24;;;;;;;5.45;2.40;;;;;;;;;;4986734;28;20364;-77
2023/08/03 01:34:50;;;;;;;;;;;;;;;;;;4955206;29;20616;-77
2023/08/03 01:37:18;;;;;;;5.65;2.17;;;;;;;;;;4986492;28;19922;-77
2023/08/03 01:39:45;;;;;;;5.28;2.15;;;;;;;;;;4937760;29;20050;-82
2023/08/03 01:42:11;;;;;;;7.47;2.05;;;;;;;;;;4954136;29;20043;-77
2023/08/03 01:44:38;;;;;;;8.60;2.30;;;;;;;;;;4936377;29;20416;-76
2023/08/03 01:47:04;;;;;;;5.57;2.55;;;;;;;;;;4952425;29;20133;-77
2023/08/03 01:49:33;;;;;;;6.43;2.13;;;;;;;;;;4985362;28;20126;-77
2023/08/03 01:51:59;;;;;;;5.03;2.05;;;;;;;;;;4949630;29;20054;-77
2023/08/03 01:54:25;;;;;;;;;;;;;;;;;;4934905;29;20060;-76
2023/08/03 01:56:51;;;;;;;4.85;2.10;;;;;;;;;;4966245;28;19934;-78
2023/08/03 01:59:17;;;;;;;4.28;2.05;;;;;;;;;;4933252;29;20486;-76
2023/08/03 02:01:43;;;;;;;;;;;;;;;;;;4934536;29;20492;-78
2023/08/03 02:04:10;;;;;;;3.72;2.10;;;;;;;;;;4966092;28;19930;-76
2023/08/03 02:06:36;;;;;;;8.88;2.33;;;;;;;;;;4937417;29;20043;-78
2023/08/03 02:09:04;;;;;;;5.22;2.25;;;;;;;;;;4984802;28;20113;-78
2023/08/03 02:11:30;;;;;;;3.67;2.33;;;;;;;;;;4938911;29;20059;-77
2023/08/03 02:13:56;;;;;;;;;;;;;;;;;;4932611;29;20108;-77
2023/08/03 02:16:22;;;;;;;6.20;2.38;;;;;;;;;;4982417;28;19931;-77
2023/08/03 02:18:48;;;;;;;;;;;;;;;;;;4953100;29;20513;-82
2023/08/03 02:21:14;;;;;;;5.50;2.67;;;;;;;;;;4985554;28;20016;-77
2023/08/03 02:23:40;;;;;;;;;;;;;;;;;;4924347;29;20048;-77
2023/08/03 02:26:06;;;;;;;7.10;3.10;;;;;;;;;;4933294;29;19927;-78
2023/08/03 02:28:32;;;;;;;;;;;;;;;;;;4926453;29;20050;-77
2023/08/03 02:30:58;;;;;;;4.88;2.90;;;;;;;;;;4933073;29;19926;-77
2023/08/03 02:33:25;;;;;;;7.47;3.30;;;;;;;;;;4933880;29;20091;-76
2023/08/03 02:35:51;;;;;;;6.50;3.40;;;;;;;;;;4949085;29;20429;-77
2023/08/03 02:38:17;;;;;;;;;;;;;;;;;;4955556;28;20051;-77
2023/08/03 02:40:43;;;;;;;6.35;3.20;;;;;;;;;;4949909;29;20407;-80
2023/08/03 02:43:09;;;;;;;7.07;3.78;;;;;;;;;;4982847;28;20055;-76
2023/08/03 02:45:35;;;;;;;8.75;3.58;;;;;;;;;;4937093;29;20043;-79
2023/08/03 02:48:01;;;;;;;;;;;;;;;;;;4935497;29;20048;-77
2023/08/03 02:50:27;;;;;;;15.25;4.40;;;;;;;;;;4976604;28;19922;-77
2023/08/03 02:52:53;;;;;;;;;;;;;;;;;;4932525;29;20098;-77
2023/08/03 02:55:19;;;;;;;9.82;4.53;;;;;;;;;;4984997;28;19922;-80
2023/08/03 02:57:45;;;;;;;;;;;;;;;;;;4940538;29;20082;-81
2023/08/03 03:00:12;;;;;;;10.23;5.00;;;;;;;;;;4964641;28;19981;-77
2023/08/03 03:02:38;;;;;;;11.20;5.25;;;;;;;;;;4932902;29;20115;-77
2023/08/03 03:05:04;;;;;;;;;;;;;;;;;;4933104;29;20136;-77
2023/08/03 03:07:33;;;;;;;12.88;5.20;;;;;;;;;;4944606;29;20040;-77
2023/08/03 03:09:59;;;;;;;15.13;5.70;;;;;;;;;;4935847;29;20564;-78
2023/08/03 03:12:25;;;;;;;;;;;;;;;;;;4936454;29;20047;-77
2023/08/03 03:14:51;;;;;;;10.32;5.72;;;;;;;;;;4945548;29;19954;-83
2023/08/03 03:17:17;;;;;;;;;;;;;;;;;;4933342;29;20091;-77
2023/08/03 03:19:43;;;;;;;12.23;5.70;;;;;;;;;;4964869;28;20392;-78
2023/08/03 03:22:11;;;;;;;;;;;;;;;;;;4920377;29;20054;-77
2023/08/03 03:24:37;;;;;;;12.35;5.38;;;;;;;;;;4966924;28;19926;-77
2023/08/03 03:27:03;;;;;;;;;;;;;;;;;;4952110;29;20043;-77
2023/08/03 03:29:29;;;;;;;12.68;5.88;;;;;;;;;;4983280;28;19922;-77
2023/08/03 03:31:55;;;;;;;14.23;6.20;;;;;;;;;;4934207;29;20558;-78
2023/08/03 03:34:21;;;;;;;;;;;;;;;;;;4936155;29;20392;-77
2023/08/03 03:36:48;;;;;;;14.35;6.72;;;;;;;;;;4969934;28;19974;-76
2023/08/03 03:39:14;;;;;;;16.30;6.28;;;;;;;;;;4929330;29;20109;-77
2023/08/03 03:41:40;;;;;;;;;;;;;;;;;;4936905;29;20063;-77
2023/08/03 03:44:06;;;;;;;17.17;5.85;;;;;;;;;;4976869;28;19927;-76
2023/08/03 03:46:32;;;;;;;;;;;;;;;;;;4933351;29;20488;-78
2023/08/03 03:48:58;;;;;;;16.33;5.97;;;;;;;;;;4932312;29;19973;-77
2023/08/03 03:51:24;;;;;;;;;;;;;;;;;;4932760;29;20409;-77
2023/08/03 03:53:50;;;;;;;18.70;6.07;;;;;;;;;;4973007;28;19930;-77
2023/08/03 03:56:16;;;;;;;;;;;;;;;;;;4948712;29;20048;-77
2023/08/03 03:58:42;;;;;;;13.73;6.20;;;;;;;;;;4964144;28;19937;-78
2023/08/03 04:01:08;;;;;;;;;;;;;;;;;;4947907;28;20063;-77
2023/08/03 04:03:34;;;;;;;15.45;5.35;;;;;;;;;;4987413;28;19926;-77
2023/08/03 04:06:00;;;;;;;;;;;;;;;;;;4951893;29;20062;-78
2023/08/03 04:08:26;;;;;;;25.92;6.22;;;;;;;;;;4967385;28;19932;-77
2023/08/03 04:10:52;;;;;;;;;;;;;;;;;;4936590;29;20063;-77
2023/08/03 04:13:18;;;;;;;19.63;5.97;;;;;;;;;;4950212;29;19918;-77
2023/08/03 04:15:44;;;;;;;;;;;;;;;;;;4936480;29;20043;-77
2023/08/03 04:18:10;;;;;;;20.20;5.40;;;;;;;;;;4972971;28;19929;-77
2023/08/03 04:20:36;;;;;;;;;;;;;;;;;;4987332;28;20051;-77
2023/08/03 04:23:02;;;;;;;18.58;4.90;;;;;;;;;;4977895;28;19977;-77
2023/08/03 04:25:28;;;;;;;;;;;;;;;;;;4951963;29;20507;-77
2023/08/03 04:27:54;;;;;;;20.85;5.57;;;;;;;;;;4950476;29;19926;-77
2023/08/03 04:30:20;;;;;;;;;;;;;;;;;;4967623;28;20405;-77
2023/08/03 04:32:46;;;;;;;20.90;6.13;;;;;;;;;;4951717;29;20025;-78
2023/08/03 04:35:13;;;;;;;;;;;;;;;;;;4951642;29;20092;-78
2023/08/03 04:37:39;;;;;;;16.63;5.90;;;;;;;;;;4986050;28;20334;-77
2023/08/03 04:40:06;;;;;;;;;;;;;;;;;;4986852;28;20065;-77
2023/08/03 04:42:32;;;;;;;15.75;6.20;;;;;;;;;;4987438;28;19922;-78
2023/08/03 04:44:58;;;;;;;;;;;;;;;;;;4990263;28;20086;-77
2023/08/03 04:47:24;;;;;;;22.17;7.07;;;;;;;;;;4978301;28;19954;-77
2023/08/03 04:49:50;;;;;;;;;;;;;;;;;;4971425;28;20496;-78
2023/08/03 04:52:16;;;;;;;15.00;6.68;;;;;;;;;;4960444;28;19985;-77
2023/08/03 04:54:42;;;;;;;22.33;7.50;;;;;;;;;;4972517;28;20051;-77
2023/08/03 04:57:08;;;;;;;;;;;;;;;;;;4970996;28;20043;-78
2023/08/03 04:59:34;;;;;;;17.35;6.93;;;;;;;;;;4969506;28;19932;-79
2023/08/03 05:02:00;;;;;;;;;;;;;;;;;;4953586;28;20063;-78
2023/08/03 05:04:26;;;;;;;19.15;7.10;;;;;;;;;;4989329;28;20347;-77
2023/08/03 05:06:52;;;;;;;20.63;7.35;;;;;;;;;;4989658;28;20046;-77
2023/08/03 05:09:18;;;;;;;;;;;;;;;;;;4957998;28;20054;-78
2023/08/03 05:11:44;;;;;;;17.85;7.15;;;;;;;;;;4960348;28;19949;-78
2023/08/03 05:14:10;;;;;;;;;;;;;;;;;;4953699;29;20098;-78
2023/08/03 05:16:36;;;;;;;20.38;7.18;;;;;;;;;;4968568;28;19996;-78
2023/08/03 05:19:02;;;;;;;;;;;;;;;;;;4990755;28;20053;-78
2023/08/03 05:21:28;;;;;;;22.02;7.38;;;;;;;;;;4980628;28;19939;-76
2023/08/03 05:23:54;;;;;;;;;;;;;;;;;;4981672;28;20135;-76
2023/08/03 05:26:20;;;;;;;16.05;7.90;;;;;;;;;;4988805;28;19934;-77
2023/08/03 05:28:46;;;;;;;;;;;;;;;;;;4973093;28;20047;-77
2023/08/03 05:31:12;;;;;;;22.90;7.55;;;;;;;;;;4989749;28;20080;-77
2023/08/03 05:33:38;;;;;;;22.20;8.10;;;;;;;;;;4943286;29;20051;-77
2023/08/03 05:36:04;;;;;;;;;;;;;;;;;;4938641;29;20055;-76
2023/08/03 05:38:30;;;;;;;17.37;8.43;;;;;;;;;;4956717;28;20417;-78
2023/08/03 05:40:56;;;;;;;;;;;;;;;;;;4971025;28;20141;-76
2023/08/03 05:43:25;;;;;;;16.42;7.40;;;;;;;;;;4978210;28;19972;-77
2023/08/03 05:45:54;;;;;;;18.33;8.25;;;;;;;;;;4957833;28;20046;-77
2023/08/03 05:48:21;;;;;;;16.88;7.53;;;;;;;;;;4956717;28;20149;-76
2023/08/03 05:50:48;;;;;;;19.73;8.00;;;;;;;;;;4989590;28;20057;-78
2023/08/03 05:53:14;;;;;;;14.73;7.35;;;;;;;;;;4976754;28;20051;-78
2023/08/03 05:55:41;;;;;;;22.17;7.97;;;;;;;;;;4953179;28;20061;-77
2023/08/03 05:58:09;;;;;;;15.68;8.02;;;;;;;;;;4937294;29;20086;-78
2023/08/03 06:00:35;;;;;;;17.05;7.80;;;;;;;;;;4937620;29;20047;-77
2023/08/03 06:03:02;;;;;;;;;;;;;;;;;;4978225;28;20050;-77
2023/08/03 06:05:36;;;;;;;18.70;8.10;;;;;;;;;;4954571;28;19922;-77
2023/08/03 06:08:10;;;;;;;23.60;9.05;;;;;;;;;;4983171;28;20134;-77
2023/08/03 06:10:36;;;;;;;16.50;8.43;;;;;;;;;;4969919;28;20146;-77
2023/08/03 06:13:02;;;;;;;;;;;;;;;;;;4968931;28;20051;-77
2023/08/03 06:15:28;;;;;;;21.63;9.13;;;;;;;;;;4989528;28;19945;-77
2023/08/03 06:17:54;;;;;;;;;;;;;;;;;;4989453;28;20050;-77
2023/08/03 06:20:22;;;;;;;18.27;8.48;;;;;;;;;;4988816;28;19922;-77
2023/08/03 06:22:48;;;;;;;20.08;9.15;;;;;;;;;;4991323;28;20050;-77
2023/08/03 06:25:14;;;;;;;;;;;;;;;;;;4959712;28;20057;-77
2023/08/03 06:27:40;;;;;;;22.13;8.73;;;;;;;;;;5008000;28;19976;-80
2023/08/03 06:30:12;;;;;;;20.90;8.68;;;;;;;;;;4955795;28;20062;-78
2023/08/03 06:32:38;;;;;;;18.88;8.30;;;;;;;;;;4988733;28;20153;-80
2023/08/03 06:35:04;;;;;;;;;;;;;;;;;;4957443;28;20043;-78
2023/08/03 06:37:30;;;;;;;19.92;8.18;;;;;;;;;;4972704;28;19926;-78
2023/08/03 06:39:56;;;;;;;;;;;;;;;;;;4924919;28;20136;-78
2023/08/03 06:42:22;;;;;;;19.80;9.03;;;;;;;;;;4956263;28;20061;-77
2023/08/03 06:44:48;;;;;;;;;;;;;;;;;;4956195;28;20298;-78
2023/08/03 06:47:15;;;;;;;17.75;8.30;;;;;;;;;;4952684;28;19923;-79
2023/08/03 06:49:41;;;;;;;16.13;8.05;;;;;;;;;;4954200;28;20477;-78
2023/08/03 06:52:07;;;;;;;;;;;;;;;;;;4971928;28;20047;-76
2023/08/03 06:54:33;;;;;;;14.75;7.63;;;;;;;;;;4987540;28;19926;-78
2023/08/03 06:56:59;;;;;;;;;;;;;;;;;;4955825;28;20137;-76
2023/08/03 06:59:25;;;;;;;18.15;7.97;;;;;;;;;;4969262;28;20077;-77
2023/08/03 07:01:51;;;;;;;;;;;;;;;;;;4952350;28;20386;-77
2023/08/03 07:04:17;;;;;;;13.70;7.68;;;;;;;;;;4983884;28;19929;-77
2023/08/03 07:06:43;;;;;;;;;;;;;;;;;;4971793;28;20046;-77
2023/08/03 07:09:09;;;;;;;23.38;7.35;;;;;;;;;;4954429;28;19928;-77
2023/08/03 07:11:35;;;;;;;;;;;;;;;;;;4942973;29;20386;-76
2023/08/03 07:14:01;;;;;;;12.57;6.55;;;;;;;;;;4967594;28;19922;-76
2023/08/03 07:16:28;;;;;;;;;;;;;;;;;;4987354;28;20396;-76
2023/08/03 07:18:54;;;;;;;15.15;7.03;;;;;;;;;;4954694;28;20371;-76
2023/08/03 07:21:20;;;;;;;13.93;6.40;;;;;;;;;;4986928;28;20055;-78
2023/08/03 07:23:46;;;;;;;12.77;6.13;;;;;;;;;;4986887;28;20468;-76
2023/08/03 07:26:12;;;;;;;;;;;;;;;;;;4987829;28;20059;-80
2023/08/03 07:28:38;;;;;;;12.30;5.57;;;;;;;;;;4984660;28;20355;-76
2023/08/03 07:31:04;;;;;;;;;;;;;;;;;;4953037;29;20105;-76
2023/08/03 07:33:30;;;;;;;16.55;5.13;;;;;;;;;;4967565;28;20383;-76
2023/08/03 07:35:56;;;;;;;;;;;;;;;;;;4943107;28;20148;-75
2023/08/03 07:38:22;;;;;;;18.95;5.00;;;;;;;;;;4986531;28;19929;-77
2023/08/03 07:40:48;;;;;;;;;;;;;;;;;;4976406;28;20070;-76
2023/08/03 07:43:14;;;;;;;8.73;4.35;;;;;;;;;;4966634;28;20277;-76
2023/08/03 07:45:40;;;;;;;;;;;;;;;;;;4967484;28;20082;-76
2023/08/03 07:48:06;;;;;;;11.90;3.90;;;;;;;;;;4974481;28;19925;-77
2023/08/03 07:50:32;;;;;;;;;;;;;;;;;;4930034;29;20176;-76
2023/08/03 07:52:58;;;;;;;10.18;4.47;;;;;;;;;;4977923;28;19929;-76
2023/08/03 07:55:24;;;;;;;10.18;3.50;;;;;;;;;;4986673;28;20058;-76
2023/08/03 07:57:50;;;;;;;;;;;;;;;;;;4978098;28;20051;-76
2023/08/03 08:00:17;;;;;;;7.45;2.88;;;;;;;;;;4951710;29;19926;-76
2023/08/03 08:02:43;;;;;;;8.45;3.17;;;;;;;;;;4966458;28;20125;-75
2023/08/03 08:05:09;;;;;;;;;;;;;;;;;;4951979;29;20047;-75
2023/08/03 08:07:35;;;;;;;9.43;3.00;;;;;;;;;;4966932;28;19922;-76
2023/08/03 08:10:01;;;;;;;;;;;;;;;;;;4983556;28;20497;-76
2023/08/03 08:12:27;;;;;;;9.48;3.05;;;;;;;;;;4973742;28;19922;-74
2023/08/03 08:14:52;;;;;;;;;;;;;;;;;;4951624;29;20164;-76
2023/08/03 08:17:19;;;;;;;11.38;2.63;;;;;;;;;;4976976;28;20467;-75
2023/08/03 08:19:44;;;;;;;;;;;;;;;;;;4974838;28;20043;-75
2023/08/03 08:22:11;;;;;;;4.30;2.70;;;;;;;;;;4990998;28;19945;-75
2023/08/03 08:24:37;;;;;;;6.57;2.40;;;;;;;;;;4988986;28;20047;-76
2023/08/03 08:27:03;;;;;;;;;;;;;;;;;;4975833;28;20039;-80
2023/08/03 08:29:29;;;;;;;9.80;2.70;;;;;;;;;;4946691;28;20386;-79
2023/08/03 08:31:55;;;;;;;10.35;2.65;;;;;;;;;;4954859;28;20129;-76
2023/08/03 08:34:21;;;;;;;10.05;2.83;;;;;;;;;;4969973;28;20074;-75
2023/08/03 08:36:51;;;;;;;;;;;;;;;;;;4969455;28;20101;-75
2023/08/03 08:39:17;;;;;;;7.45;2.20;;;;;;;;;;4976167;28;19938;-76
2023/08/03 08:41:43;;;;;;;;;;;;;;;;;;4962613;28;20047;-79
2023/08/03 08:44:13;;;;;;;7.93;1.40;;;;;;;;;;4981397;28;19929;-80
2023/08/03 08:46:41;;;;;;;6.20;1.52;;;;;;;;;;4984412;28;20050;-79
2023/08/03 08:49:07;;;;;;;9.60;1.83;;;;;;;;;;4951851;28;20057;-79
2023/08/03 08:51:33;;;;;;;;;;;;;;;;;;4979653;28;20046;-79
2023/08/03 08:53:59;;;;;;;6.05;1.60;;;;;;;;;;4943065;29;20009;-78
2023/08/03 08:56:25;;;;;;;;;;;;;;;;;;4970119;28;20043;-79
2023/08/03 08:58:51;;;;;;;7.40;1.30;;;;;;;;;;4981015;28;19949;-76
2023/08/03 09:01:17;;;;;;;4.00;1.13;;;;;;;;;;4989380;28;20781;-75
2023/08/03 09:03:43;;;;;;;;;;;;;;;;;;4962339;28;20145;-78
2023/08/03 09:06:10;;;;;;;3.25;1.40;;;;;;;;;;4990561;28;20045;-79
2023/08/03 09:08:48;;;;;;;4.32;1.42;;;;;;;;;;4961099;28;20051;-79
2023/08/03 09:11:14;;;;;;;5.18;1.40;;;;;;;;;;4957612;28;20054;-79
2023/08/03 09:13:40;;;;;;;;;;;;;;;;;;4990366;28;20057;-78
2023/08/03 09:16:06;;;;;;;6.25;1.63;;;;;;;;;;4958345;28;19922;-79
2023/08/03 09:18:33;;;;;;;5.68;1.48;;;;;;;;;;4998531;28;20042;-79
2023/08/03 09:21:09;;;;;;;4.45;1.27;;;;;;;;;;4978597;28;20090;-81
2023/08/03 09:23:36;;;;;;;4.97;1.20;;;;;;;;;;4971473;28;20116;-79
2023/08/03 09:26:02;;;;;;;3.45;1.10;;;;;;;;;;4982446;28;20085;-79
2023/08/03 09:28:35;;;;;;;2.83;1.30;;;;;;;;;;4981624;28;20399;-80
2023/08/03 09:31:02;;;;;;;4.43;0.80;;;;;;;;;;4953481;28;20074;-79
2023/08/03 09:33:28;;;;;;;2.47;0.98;;;;;;;;;;4999571;28;20043;-79
2023/08/03 09:36:08;;;;;;;4.65;1.10;;;;;;;;;;4974123;28;20050;-79
2023/08/03 09:38:34;;;;;;;3.28;1.02;;;;;;;;;;4990068;28;20050;-80
2023/08/03 09:41:01;;;;;;;4.75;1.10;;;;;;;;;;4957922;28;20527;-80
2023/08/03 09:43:27;;;;;;;3.20;1.17;;;;;;;;;;4978596;28;20063;-80
2023/08/03 09:45:54;;;;;;;3.33;0.90;;;;;;;;;;4971636;28;20059;-79
2023/08/03 09:48:20;;;;;;;5.78;1.10;;;;;;;;;;4953158;28;20189;-80
2023/08/03 09:50:51;;;;;;;4.10;1.00;;;;;;;;;;4942098;28;20042;-77
2023/08/03 09:53:19;;;;;;;3.88;1.10;;;;;;;;;;4988969;28;20476;-81
2023/08/03 09:55:57;;;;;;;4.53;1.00;;;;;;;;;;4989998;28;20451;-79
2023/08/03 09:58:28;;;;;;;4.85;0.90;;;;;;;;;;4972526;28;20093;-80
2023/08/03 10:00:55;;;;;;;3.08;1.00;;;;;;;;;;4943602;28;20047;-78
2023/08/03 10:03:22;;;;;;;4.47;1.00;;;;;;;;;;4947292;28;20062;-76
2023/08/03 10:06:04;;;;;;;4.78;1.48;;;;;;;;;;4979802;28;20038;-77
2023/08/03 10:08:33;;;;;;;5.40;1.15;;;;;;;;;;4949878;28;20066;-80
2023/08/03 10:11:01;;;;;;;3.65;1.30;;;;;;;;;;4958734;28;20104;-79
2023/08/03 10:13:28;;;;;;;4.68;1.30;;;;;;;;;;4955539;28;20058;-79
2023/08/03 10:15:54;;;;;;;6.88;1.25;;;;;;;;;;4982452;28;20551;-79
2023/08/03 10:18:20;;;;;;;4.80;1.17;;;;;;;;;;4984822;28;20473;-80
2023/08/03 10:20:47;;;;;;;3.42;1.30;;;;;;;;;;4964671;28;20051;-82
2023/08/03 10:23:15;;;;;;;3.50;1.13;;;;;;;;;;4979667;28;20053;-78
2023/08/03 10:26:00;;;;;;;6.55;1.58;;;;;;;;;;4987563;28;20126;-72
2023/08/03 10:28:38;;;;;;;4.50;1.20;;;;;;;;;;4966757;28;20053;-76
2023/08/03 10:31:14;;;;;;;3.38;1.20;;;;;;;;;;4964266;28;20109;-77
2023/08/03 10:33:46;;;;;;;4.38;1.27;;;;;;;;;;4979372;28;20054;-77
2023/08/03 10:36:35;;;;;;;3.58;1.25;;;;;;;;;;4975859;28;20563;-77
2023/08/03 10:39:03;;;;;;;6.30;1.45;;;;;;;;;;4960270;28;20082;-77
2023/08/03 10:41:36;;;;;;;4.90;1.50;;;;;;;;;;4935690;29;20055;-78
2023/08/03 10:44:14;;;;;;;4.90;1.10;;;;;;;;;;4966607;28;20055;-77
2023/08/03 10:47:01;;;;;;;4.53;1.23;;;;;;;;;;4956190;28;20117;-76
2023/08/03 10:49:27;;;;;;;3.38;1.00;;;;;;;;;;4925631;28;20134;-75
2023/08/03 10:52:12;;;;;;;1.88;1.27;;;;;;;;;;4942026;28;20070;-68
2023/08/03 10:54:38;;;;;;;4.22;1.20;;;;;;;;;;4963175;28;20043;-70
2023/08/03 10:57:07;;;;;;;5.75;1.30;;;;;;;;;;4966880;28;20051;-70
2023/08/03 10:59:44;;;;;;;4.47;1.20;;;;;;;;;;4983962;28;20047;-75
2023/08/03 11:02:14;;;;;;;3.75;1.30;;;;;;;;;;4950870;28;20070;-75
2023/08/03 11:04:40;;;;;;;7.35;1.42;;;;;;;;;;4971411;28;20058;-79
2023/08/03 11:07:10;;;;;;;6.53;1.20;;;;;;;;;;4975892;28;20055;-74
2023/08/03 11:09:36;;;;;;;5.68;1.13;;;;;;;;;;4975068;28;20080;-75
2023/08/03 11:12:08;;;;;;;3.38;1.20;;;;;;;;;;4956401;28;20086;-78
2023/08/03 11:14:43;;;;;;;4.75;1.10;;;;;;;;;;4970400;28;20054;-79
2023/08/03 11:17:40;;;;;;;4.95;1.17;;;;;;;;;;4982981;28;20070;-79
2023/08/03 11:20:17;;;;;;;5.32;1.38;;;;;;;;;;4956345;28;20445;-80
2023/08/03 11:23:02;;;;;;;6.10;1.45;;;;;;;;;;4959763;28;20132;-76
2023/08/03 11:25:28;;;;;;;8.77;1.50;;;;;;;;;;4987465;28;20058;-76
2023/08/03 11:27:54;;;;;;;5.40;1.30;;;;;;;;;;4942100;29;20047;-78
2023/08/03 11:30:21;;;;;;;6.45;1.30;;;;;;;;;;4951623;29;20094;-80
2023/08/03 11:32:47;;;;;;;6.13;1.50;;;;;;;;;;4967299;28;20098;-80
2023/08/03 11:35:13;;;;;;;6.28;1.30;;;;;;;;;;4936121;29;20047;-79
2023/08/03 11:37:39;;;;;;;4.22;1.30;;;;;;;;;;4942047;28;20047;-78
2023/08/03 11:40:08;;;;;;;7.63;1.63;;;;;;;;;;4986470;28;20047;-77
2023/08/03 11:42:36;;;;;;;6.22;1.60;;;;;;;;;;4987080;28;20065;-80
2023/08/03 11:45:02;;;;;;;4.25;1.50;;;;;;;;;;4952596;28;20080;-81
2023/08/03 11:47:44;;;;;;;4.20;1.50;;;;;;;;;;4952453;28;20046;-77
2023/08/03 11:50:11;;;;;;;5.15;1.45;;;;;;;;;;4978220;28;20046;-77
2023/08/03 11:52:37;;;;;;;4.07;1.15;;;;;;;;;;4978635;28;20102;-78
2023/08/03 11:55:03;;;;;;;3.55;1.13;;;;;;;;;;4966273;28;20469;-76
2023/08/03 12:00:14;;;;;;;3.72;1.20;;;;;;;;;;4949076;29;20052;-78
2023/08/03 12:02:41;;;;;;;5.38;1.00;;;;;;;;;;4939315;28;20094;-77
2023/08/03 12:05:08;;;;;;;2.17;0.80;;;;;;;;;;4953871;28;20042;-76
2023/08/03 12:07:34;;;;;;;1.80;1.00;;;;;;;;;;4952351;28;20128;-78
2023/08/03 12:10:00;;;;;;;2.33;0.90;;;;;;;;;;4939815;29;20083;-83
2023/08/03 12:12:26;;;;;;;3.83;1.10;;;;;;;;;;4977437;28;20246;-83
2023/08/03 12:14:52;;;;;;;4.28;1.15;;;;;;;;;;4983485;28;20074;-83
2023/08/03 12:17:18;;;;;;;4.07;1.20;;;;;;;;;;4951434;28;20047;-83
2023/08/03 12:19:44;;;;;;;3.13;1.30;;;;;;;;;;4922588;28;20051;-83
2023/08/03 12:22:11;;;;;;;3.58;1.02;;;;;;;;;;4953998;28;20058;-83
2023/08/03 12:24:37;;;;;;;4.90;1.00;;;;;;;;;;4969669;28;20053;-84
2023/08/03 12:27:03;;;;;;;3.17;0.93;;;;;;;;;;4985923;28;20058;-84
2023/08/03 12:29:30;;;;;;;4.65;1.40;;;;;;;;;;4985234;28;20054;-83
2023/08/03 12:31:56;;;;;;;3.65;1.10;;;;;;;;;;4986341;28;20089;-84
2023/08/03 12:34:22;;;;;;;4.85;1.00;;;;;;;;;;4969199;28;20047;-84
2023/08/03 12:36:48;;;;;;;3.03;1.00;;;;;;;;;;4926181;29;20058;-83
2023/08/03 12:39:17;;;;;;;4.38;1.30;;;;;;;;;;4966106;28;20859;-84
2023/08/03 12:41:43;;;;;;;5.03;1.50;;;;;;;;;;4934997;29;20055;-83
2023/08/03 12:44:09;;;;;;;6.03;1.88;;;;;;;;;;4931986;29;20083;-83
2023/08/03 12:46:35;;;;;;;8.13;1.63;;;;;;;;;;4966098;28;20055;-84
2023/08/03 12:49:03;;;;;;;5.15;1.45;;;;;;;;;;4949868;29;20047;-83
2023/08/03 12:51:30;;;;;;;6.22;1.65;;;;;;;;;;4946174;28;20082;-84
2023/08/03 12:53:56;;;;;;;6.05;1.58;;;;;;;;;;4953203;28;20054;-79
2023/08/03 12:56:22;;;;;;;6.97;1.63;;;;;;;;;;4986189;28;20038;-78
2023/08/03 12:58:48;;;;;;;4.50;1.38;;;;;;;;;;4967721;28;20412;-80
2023/08/03 13:01:14;;;;;;;5.00;1.40;;;;;;;;;;4963127;28;20039;-77
2023/08/03 13:03:40;;;;;;;5.20;1.60;;;;;;;;;;4952535;28;20142;-83
2023/08/03 13:06:06;;;;;;;5.65;1.30;;;;;;;;;;4954887;28;21986;-79
2023/08/03 13:08:32;;;;;;;8.02;1.80;;;;;;;;;;4937503;29;20079;-78
2023/08/03 13:10:58;;;;;;;8.00;1.60;;;;;;;;;;4937500;29;20535;-78
2023/08/03 13:13:24;;;;;;;4.55;1.42;;;;;;;;;;4951975;29;20543;-80
2023/08/03 13:15:50;;;;;;;5.28;1.48;;;;;;;;;;4950055;28;20516;-79
2023/08/03 13:18:17;;;;;;;5.18;1.50;;;;;;;;;;4959620;28;20051;-77
2023/08/03 13:20:43;;;;;;;6.97;1.90;;;;;;;;;;4947509;28;20058;-76
2023/08/03 13:23:09;;;;;;;5.05;1.48;;;;;;;;;;4963604;28;20074;-81
2023/08/03 13:25:35;;;;;;;5.50;1.58;;;;;;;;;;4988022;28;20058;-81
2023/08/03 13:28:03;;;;;;;9.30;1.85;;;;;;;;;;4972926;28;20039;-83
2023/08/03 13:30:30;;;;;;;7.97;1.80;;;;;;;;;;4959307;28;20059;-82
2023/08/03 13:32:56;;;;;;;8.18;1.60;;;;;;;;;;4966900;28;20152;-80
2023/08/03 13:35:22;;;;;;;7.28;1.92;;;;;;;;;;4940059;28;20047;-80
2023/08/03 13:37:49;;;;;;;7.00;1.60;;;;;;;;;;4972380;28;20050;-80
2023/08/03 13:40:15;;;;;;;5.03;1.60;;;;;;;;;;4955195;28;20091;-80
2023/08/03 13:42:41;;;;;;;7.45;1.98;;;;;;;;;;4956028;28;20050;-81
2023/08/03 13:45:07;;;;;;;7.03;1.80;;;;;;;;;;4972001;28;20051;-81
2023/08/03 13:47:33;;;;;;;5.13;1.63;;;;;;;;;;4985277;28;20129;-80
2023/08/03 13:50:00;;;;;;;4.43;1.40;;;;;;;;;;4956513;28;20105;-81
2023/08/03 13:52:26;;;;;;;3.60;1.50;;;;;;;;;;4988228;28;20134;-81
2023/08/03 13:54:52;;;;;;;7.00;1.48;;;;;;;;;;4937667;29;20265;-80
2023/08/03 13:57:18;;;;;;;6.38;1.65;;;;;;;;;;4984335;28;20050;-80
2023/08/03 13:59:45;;;;;;;4.97;1.38;;;;;;;;;;4953376;28;20588;-81
2023/08/03 14:02:12;;;;;;;6.20;1.58;;;;;;;;;;4948086;28;20149;-80
2023/08/03 14:04:38;;;;;;;4.57;1.30;;;;;;;;;;4963477;28;20086;-80
2023/08/03 14:07:05;;;;;;;3.10;1.30;;;;;;;;;;4963872;28;20049;-80
2023/08/03 14:09:31;;;;;;;3.72;1.30;;;;;;;;;;4949330;28;20054;-80
2023/08/03 14:11:57;;;;;;;6.00;1.40;;;;;;;;;;4946612;28;20050;-81
2023/08/03 14:14:23;;;;;;;5.82;1.45;;;;;;;;;;4928930;28;20504;-80
2023/08/03 14:16:50;;;;;;;4.13;1.33;;;;;;;;;;4932551;28;20054;-80
2023/08/03 14:19:16;;;;;;;5.82;1.42;;;;;;;;;;4964148;28;20039;-80
2023/08/03 14:21:43;;;;;;;4.13;1.55;;;;;;;;;;4963861;28;20046;-80
2023/08/03 14:24:09;;;;;;;6.05;1.48;;;;;;;;;;4950958;28;20046;-81
2023/08/03 14:26:35;;;;;;;2.72;1.02;;;;;;;;;;4966509;28;20800;-80
2023/08/03 14:29:01;;;;;;;5.63;1.70;;;;;;;;;;4924487;28;20892;-80
2023/08/03 14:31:27;;;;;;;6.78;2.33;;;;;;;;;;4924824;28;20046;-80
2023/08/03 14:33:53;;;;;;;4.68;1.60;;;;;;;;;;4926845;28;20086;-80
2023/08/03 14:36:20;;;;;;;3.65;1.42;;;;;;;;;;4957035;28;20042;-80
2023/08/03 14:38:46;;;;;;;7.68;1.70;;;;;;;;;;4963065;28;20053;-80
2023/08/03 14:41:14;;;;;;;4.63;1.30;;;;;;;;;;4963660;28;20076;-80
2023/08/03 14:43:41;;;;;;;13.85;2.35;;;;;;;;;;4960711;28;20475;-83
2023/08/03 14:46:07;;;;;;;9.35;2.20;;;;;;;;;;4970574;28;20058;-79
2023/08/03 14:48:33;;;;;;;7.85;2.20;;;;;;;;;;4961700;28;20047;-74
2023/08/03 14:50:59;;;;;;;10.82;1.85;;;;;;;;;;4959365;28;20137;-75
2023/08/03 14:53:25;;;;;;;8.90;2.08;;;;;;;;;;4970501;28;20046;-75
2023/08/03 14:55:58;;;;;;;12.77;2.45;;;;;;;;;;4987550;28;20050;-75
2023/08/03 14:58:24;;;;;;;10.40;2.38;;;;;;;;;;4985713;28;20158;-80
2023/08/03 15:00:50;;;;;;;6.43;1.88;;;;;;;;;;4971318;28;20050;-80
2023/08/03 15:03:16;;;;;;;8.45;2.00;;;;;;;;;;4999740;28;20063;-81
2023/08/03 15:05:42;;;;;;;10.80;2.45;;;;;;;;;;4952341;28;20054;-81
2023/08/03 15:08:08;;;;;;;9.75;2.20;;;;;;;;;;4964903;28;20038;-80